Time;durP1;ratioP1;P1;durP2;ratioP2;P2;SDS_P1;SDS_P2;PMS_P1;PMS_P2;Temp;Humidity;BMP_temperature;BMP_pressure;BME280_temperature;BME280_humidity;BME280_pressure;Samples;Min_cycle;Max_cycle;Signal;HPM_P1;HPM_P2
2022/03/04 00:01:17;;;;;;;24.75;17.52;;;;;;;6.53;44.45;101796.78;5075760;28;20401;-67
2022/03/04 00:03:43;;;;;;;24.95;17.70;;;;;;;6.45;44.44;101799.66;5075408;28;20051;-67
2022/03/04 00:06:08;;;;;;;23.63;17.40;;;;;;;6.49;44.78;101795.16;5100573;28;20023;-67
2022/03/04 00:08:34;;;;;;;22.13;16.75;;;;;;;6.49;44.95;101798.66;5109433;28;20453;-66
2022/03/04 00:11:00;;;;;;;22.90;16.98;;;;;;;6.43;44.20;101804.13;5091346;28;20024;-66
2022/03/04 00:13:25;;;;;;;23.85;17.52;;;;;;;6.42;44.24;101807.69;5092344;28;20024;-67
2022/03/04 00:15:51;;;;;;;25.33;17.05;;;;;;;6.40;44.22;101804.22;5072453;28;20555;-67
2022/03/04 00:18:16;;;;;;;21.00;17.05;;;;;;;6.30;44.95;101814.22;5093991;28;20055;-66
2022/03/04 00:20:44;;;;;;;24.13;17.13;;;;;;;6.18;45.21;101814.56;5075531;28;20022;-67
2022/03/04 00:23:10;;;;;;;26.63;18.17;;;;;;;6.22;44.73;101823.28;5096583;28;20118;-67
2022/03/04 00:25:35;;;;;;;24.42;17.52;;;;;;;5.96;45.81;101816.09;5076549;28;20500;-67
2022/03/04 00:28:02;;;;;;;22.83;17.75;;;;;;;6.01;45.69;101817.69;5093292;28;20012;-66
2022/03/04 00:30:27;;;;;;;24.08;18.67;;;;;;;5.96;46.27;101809.03;5091701;28;20115;-67
2022/03/04 00:32:53;;;;;;;22.83;17.02;;;;;;;5.87;45.71;101812.75;5073312;28;20123;-67
2022/03/04 00:35:18;;;;;;;27.55;19.05;;;;;;;5.92;46.14;101812.63;5087523;28;20032;-66
2022/03/04 00:37:46;;;;;;;22.95;18.20;;;;;;;5.92;46.27;101818.78;5091829;28;20034;-67
2022/03/04 00:40:14;;;;;;;26.80;17.85;;;;;;;6.08;45.71;101821.00;5102413;28;20097;-67
2022/03/04 00:42:40;;;;;;;22.90;18.00;;;;;;;5.97;46.09;101817.81;5082552;28;20451;-67
2022/03/04 00:45:06;;;;;;;22.70;17.23;;;;;;;5.84;46.43;101833.09;5093172;28;20103;-67
2022/03/04 00:47:34;;;;;;;25.00;18.58;;;;;;;5.76;46.50;101827.16;5094698;28;20032;-67
2022/03/04 00:50:01;;;;;;;23.30;17.67;;;;;;;5.72;46.53;101833.44;5087358;28;20027;-67
2022/03/04 00:52:29;;;;;;;26.88;17.90;;;;;;;5.43;48.12;101840.34;5074788;28;20185;-67
2022/03/04 00:54:55;;;;;;;28.10;18.25;;;;;;;5.14;47.97;101828.75;5091622;28;20490;-67
2022/03/04 00:57:20;;;;;;;24.02;17.92;;;;;;;5.24;48.09;101826.78;5097801;28;20028;-67
2022/03/04 00:59:46;;;;;;;25.30;17.30;;;;;;;5.24;48.22;101834.69;5092664;28;20027;-67
2022/03/04 01:02:11;;;;;;;26.23;19.10;;;;;;;5.17;48.41;101831.31;5098643;28;20169;-67
2022/03/04 01:04:37;;;;;;;25.58;18.55;;;;;;;5.10;48.79;101831.50;5072242;28;20055;-66
2022/03/04 01:07:03;;;;;;;29.20;19.30;;;;;;;5.04;48.33;101832.53;5101254;28;20471;-67
2022/03/04 01:09:29;;;;;;;24.10;18.33;;;;;;;5.04;49.06;101832.53;5086972;28;20368;-66
2022/03/04 01:11:54;;;;;;;23.55;18.75;;;;;;;4.83;49.71;101831.28;5093614;28;20064;-66
2022/03/04 01:14:19;;;;;;;25.38;18.92;;;;;;;4.72;50.30;101842.03;5095983;28;20024;-67
2022/03/04 01:16:45;;;;;;;30.10;19.10;;;;;;;4.68;50.51;101839.53;5092740;28;20102;-67
2022/03/04 01:19:10;;;;;;;25.77;17.85;;;;;;;4.62;51.01;101834.38;5098194;28;20549;-67
2022/03/04 01:21:39;;;;;;;28.25;20.08;;;;;;;4.55;50.80;101826.59;5079406;28;20016;-67
2022/03/04 01:24:05;;;;;;;24.40;18.45;;;;;;;4.49;50.49;101833.78;5105811;28;20164;-67
2022/03/04 01:26:31;;;;;;;27.02;19.90;;;;;;;4.50;50.79;101830.25;5099715;28;20028;-67
2022/03/04 01:28:56;;;;;;;26.58;19.38;;;;;;;4.29;51.40;101829.84;5104345;28;20051;-67
2022/03/04 01:31:21;;;;;;;24.58;19.65;;;;;;;4.27;51.51;101830.75;5071414;28;20024;-66
2022/03/04 01:33:47;;;;;;;27.27;19.88;;;;;;;4.26;51.14;101829.88;5072486;28;20086;-67
2022/03/04 01:36:12;;;;;;;26.75;19.42;;;;;;;4.08;51.60;101825.84;5072308;28;20180;-66
2022/03/04 01:38:38;;;;;;;26.45;19.60;;;;;;;4.13;51.66;101819.66;5091226;28;20020;-67
2022/03/04 01:41:06;;;;;;;26.45;19.50;;;;;;;3.99;51.49;101826.03;5097657;28;20020;-67
2022/03/04 01:43:37;;;;;;;27.85;19.10;;;;;;;4.03;52.13;101819.84;5090370;28;20028;-66
2022/03/04 01:46:12;;;;;;;27.77;20.15;;;;;;;3.92;52.33;101815.69;5089420;28;20031;-67
2022/03/04 01:48:38;;;;;;;27.52;21.23;;;;;;;3.95;52.20;101819.13;5107356;28;20020;-67
2022/03/04 01:51:04;;;;;;;24.48;19.42;;;;;;;3.94;52.53;101813.88;5094406;28;20106;-67
2022/03/04 01:53:29;;;;;;;28.55;19.83;;;;;;;3.81;52.67;101824.66;5057690;28;20098;-67
2022/03/04 01:55:55;;;;;;;26.92;19.98;;;;;;;3.78;52.66;101818.59;5078204;28;20114;-67
2022/03/04 01:58:20;;;;;;;24.58;19.58;;;;;;;3.74;52.86;101820.41;5075348;28;20069;-67
2022/03/04 02:00:50;;;;;;;27.80;21.20;;;;;;;3.62;52.63;101816.25;5094226;28;20054;-67
2022/03/04 02:03:18;;;;;;;25.58;20.83;;;;;;;3.60;53.19;101822.44;5094858;28;20457;-67
2022/03/04 02:05:45;;;;;;;32.17;21.33;;;;;;;3.41;53.85;101838.53;5093691;28;20107;-67
2022/03/04 02:08:10;;;;;;;30.35;21.40;;;;;;;3.31;53.78;101833.47;5108322;28;20020;-67
2022/03/04 02:10:36;;;;;;;28.45;21.10;;;;;;;3.27;54.17;101830.03;5092781;28;20039;-66
2022/03/04 02:13:01;;;;;;;28.42;21.27;;;;;;;3.21;53.99;101838.00;5097547;28;20015;-67
2022/03/04 02:15:29;;;;;;;29.85;21.77;;;;;;;3.18;54.33;101832.81;5112952;28;20032;-67
2022/03/04 02:17:55;;;;;;;29.98;21.65;;;;;;;3.30;54.32;101837.84;5066076;28;20035;-67
2022/03/04 02:20:22;;;;;;;31.80;22.58;;;;;;;3.34;54.34;101817.63;5076566;28;20035;-66
2022/03/04 02:22:51;;;;;;;38.72;22.80;;;;;;;3.34;54.17;101830.78;5083789;28;20028;-66
2022/03/04 02:25:17;;;;;;;31.38;21.55;;;;;;;3.28;54.52;101829.13;5100417;28;20023;-67
2022/03/04 02:27:42;;;;;;;28.95;22.27;;;;;;;3.27;54.60;101832.66;5077652;28;20074;-66
2022/03/04 02:30:08;;;;;;;28.88;21.17;;;;;;;3.24;54.75;101822.19;5092505;28;20632;-67
2022/03/04 02:32:33;;;;;;;29.30;21.00;;;;;;;3.20;54.83;101815.22;5102909;28;20096;-67
2022/03/04 02:35:01;;;;;;;30.67;21.48;;;;;;;3.07;54.87;101819.84;5082370;28;20047;-66
2022/03/04 02:37:26;;;;;;;29.83;21.17;;;;;;;3.13;54.83;101814.47;5082391;28;20040;-66
2022/03/04 02:39:55;;;;;;;32.53;22.52;;;;;;;3.29;54.50;101806.31;5106938;28;20132;-67
2022/03/04 02:42:22;;;;;;;31.30;22.27;;;;;;;3.40;54.32;101807.88;5077620;28;20114;-66
2022/03/04 02:44:48;;;;;;;30.33;22.42;;;;;;;3.51;54.02;101810.31;5093078;28;20023;-67
2022/03/04 02:47:13;;;;;;;32.33;21.63;;;;;;;3.35;54.06;101808.84;5072933;28;20032;-67
2022/03/04 02:49:39;;;;;;;33.55;22.55;;;;;;;3.36;54.48;101807.97;5079456;28;20043;-66
2022/03/04 02:52:07;;;;;;;31.10;22.80;;;;;;;3.31;54.29;101807.16;5079274;28;20056;-66
2022/03/04 02:54:33;;;;;;;29.88;21.52;;;;;;;3.22;54.35;101804.69;5092441;28;20475;-66
2022/03/04 02:56:59;;;;;;;31.50;21.83;;;;;;;3.11;54.35;101803.09;5103411;28;20093;-67
2022/03/04 02:59:25;;;;;;;26.95;20.60;;;;;;;3.05;55.00;101805.84;5086457;28;20080;-66
2022/03/04 03:01:51;;;;;;;31.08;21.88;;;;;;;3.03;54.63;101805.03;5069033;28;20105;-67
2022/03/04 03:04:19;;;;;;;33.45;23.15;;;;;;;2.95;55.30;101806.91;5086969;28;20039;-66
2022/03/04 03:06:45;;;;;;;34.05;21.88;;;;;;;2.93;55.20;101803.41;5079500;28;20031;-66
2022/03/04 03:09:10;;;;;;;29.45;21.23;;;;;;;2.82;55.40;101802.72;5102734;28;20030;-66
2022/03/04 03:11:36;;;;;;;30.95;22.42;;;;;;;2.90;55.77;101809.59;5083961;28;20115;-67
2022/03/04 03:14:02;;;;;;;30.85;21.63;;;;;;;2.74;55.72;101808.09;5092080;28;20027;-66
2022/03/04 03:16:28;;;;;;;30.05;22.25;;;;;;;2.78;55.68;101807.16;5060399;28;20028;-66
2022/03/04 03:18:53;;;;;;;32.80;22.48;;;;;;;2.70;55.70;101802.00;5078720;28;20040;-66
2022/03/04 03:21:21;;;;;;;29.42;22.27;;;;;;;2.65;56.14;101801.22;5105389;28;20030;-66
2022/03/04 03:23:47;;;;;;;32.15;22.98;;;;;;;2.72;56.14;101804.63;5093973;28;20028;-66
2022/03/04 03:26:12;;;;;;;36.25;22.20;;;;;;;2.69;56.11;101799.41;5079089;28;20537;-66
2022/03/04 03:28:43;;;;;;;31.48;22.40;;;;;;;2.80;56.12;101804.53;5089765;28;20023;-67
2022/03/04 03:31:08;;;;;;;;;;;;;;;2.93;54.39;101798.16;5098834;28;20027;-66
2022/03/04 03:33:36;;;;;;;34.00;22.92;;;;;;;3.00;55.47;101801.56;5111787;28;19911;-67
2022/03/04 03:36:03;;;;;;;28.65;21.95;;;;;;;3.08;55.41;101808.41;5060053;28;20040;-66
2022/03/04 03:38:28;;;;;;;31.02;23.10;;;;;;;3.06;55.21;101809.34;5094662;28;20031;-67
2022/03/04 03:40:54;;;;;;;30.83;22.25;;;;;;;2.97;54.61;101818.22;5075108;28;20074;-67
2022/03/04 03:43:20;;;;;;;30.77;22.55;;;;;;;2.95;55.38;101813.00;5072967;28;20058;-66
2022/03/04 03:45:45;;;;;;;33.03;23.70;;;;;;;2.88;55.64;101811.38;5074891;28;20023;-66
2022/03/04 03:48:11;;;;;;;30.23;22.58;;;;;;;2.92;55.48;101820.94;5100277;28;20513;-66
2022/03/04 03:50:38;;;;;;;37.42;22.80;;;;;;;2.94;55.50;101815.66;5084322;28;20032;-66
2022/03/04 03:53:09;;;;;;;30.17;21.70;;;;;;;3.04;55.54;101812.00;5104956;28;20047;-66
2022/03/04 03:55:35;;;;;;;33.08;23.27;;;;;;;3.14;55.52;101813.56;5097741;28;20532;-66
2022/03/04 03:58:00;;;;;;;32.53;23.15;;;;;;;3.11;55.11;101811.00;5105996;28;20028;-66
2022/03/04 04:00:26;;;;;;;36.55;23.42;;;;;;;3.15;55.38;101809.22;5076261;28;20023;-66
2022/03/04 04:02:52;;;;;;;29.42;22.58;;;;;;;3.21;55.07;101813.47;5111762;28;20749;-67
2022/03/04 04:05:20;;;;;;;33.08;23.38;;;;;;;3.03;55.16;101819.91;5108927;28;20406;-67
2022/03/04 04:07:46;;;;;;;28.77;21.55;;;;;;;3.15;55.02;101820.59;5084091;28;20034;-66
2022/03/04 04:10:14;;;;;;;31.60;22.80;;;;;;;3.03;54.92;101827.78;5111168;28;20032;-66
2022/03/04 04:12:39;;;;;;;35.15;23.00;;;;;;;3.04;55.02;101819.03;5111138;28;20035;-66
2022/03/04 04:15:06;;;;;;;32.08;23.55;;;;;;;3.00;55.38;101823.47;5076023;28;20028;-66
2022/03/04 04:17:31;;;;;;;36.70;23.48;;;;;;;3.07;55.21;101827.72;5108862;28;20035;-66
2022/03/04 04:19:59;;;;;;;36.60;23.38;;;;;;;3.09;55.40;101835.56;5096798;28;20294;-66
2022/03/04 04:22:24;;;;;;;33.00;24.17;;;;;;;3.00;55.24;101831.34;5080900;28;20039;-66
2022/03/04 04:24:50;;;;;;;30.05;22.77;;;;;;;2.91;55.22;101836.72;5084044;28;20036;-66
2022/03/04 04:27:15;;;;;;;35.25;24.40;;;;;;;2.89;55.49;101823.63;5072872;28;20031;-66
2022/03/04 04:29:41;;;;;;;32.47;23.27;;;;;;;2.85;55.71;101824.53;5079786;28;20035;-66
2022/03/04 04:32:09;;;;;;;38.10;23.20;;;;;;;3.01;55.46;101834.84;5078832;28;20031;-66
2022/03/04 04:34:35;;;;;;;33.83;23.75;;;;;;;2.98;55.51;101833.13;5094027;28;20110;-67
2022/03/04 04:37:01;;;;;;;32.22;23.35;;;;;;;3.00;55.57;101839.22;5092832;28;20435;-67
2022/03/04 04:39:26;;;;;;;33.47;24.08;;;;;;;2.95;55.39;101838.44;5076510;28;20028;-66
2022/03/04 04:41:52;;;;;;;34.10;23.25;;;;;;;2.96;55.69;101835.75;5079654;28;20383;-67
2022/03/04 04:44:18;;;;;;;35.88;23.60;;;;;;;2.97;55.53;101834.00;5091001;28;20098;-66
2022/03/04 04:46:43;;;;;;;36.72;23.88;;;;;;;2.84;55.73;101841.22;5075625;28;20039;-67
2022/03/04 04:49:09;;;;;;;31.92;23.52;;;;;;;2.92;55.82;101841.09;5061918;28;20024;-66
2022/03/04 04:51:35;;;;;;;34.58;23.30;;;;;;;2.81;55.99;101838.63;5083361;28;20054;-66
2022/03/04 04:54:03;;;;;;;33.92;23.13;;;;;;;2.74;56.02;101844.88;5107613;28;20027;-67
2022/03/04 04:56:28;;;;;;;34.17;23.70;;;;;;;2.82;56.02;101839.50;5089150;28;20127;-66
2022/03/04 04:58:54;;;;;;;31.13;23.30;;;;;;;2.78;56.32;101837.81;5077296;28;20119;-66
2022/03/04 05:01:21;;;;;;;35.33;23.90;;;;;;;2.87;55.68;101845.56;5071884;28;20020;-66
2022/03/04 05:03:47;;;;;;;35.92;23.45;;;;;;;2.72;56.16;101846.66;5092650;28;20015;-66
2022/03/04 05:06:12;;;;;;;34.47;24.45;;;;;;;2.73;56.42;101840.50;5074035;28;20024;-66
2022/03/04 05:08:40;;;;;;;34.50;23.88;;;;;;;2.83;56.36;101839.47;5110026;28;20031;-66
2022/03/04 05:11:05;;;;;;;34.58;23.83;;;;;;;2.81;56.18;101816.75;5079687;28;20032;-67
2022/03/04 05:13:31;;;;;;;30.80;23.55;;;;;;;2.76;56.26;101837.81;5103100;28;20489;-66
2022/03/04 05:15:56;;;;;;;31.67;22.67;;;;;;;2.83;56.16;101836.84;5107593;28;20023;-66
2022/03/04 05:18:21;;;;;;;33.95;24.27;;;;;;;2.80;56.37;101828.16;5081213;28;20032;-66
2022/03/04 05:20:47;;;;;;;30.42;23.35;;;;;;;2.73;56.40;101836.09;5102955;28;20058;-66
2022/03/04 05:23:59;;;;;;;33.50;23.38;;;;;;;2.75;56.50;101841.34;5074939;28;20050;-67
2022/03/04 05:26:02;;;;;;;34.08;22.75;;;;;;;2.69;56.45;101837.03;5105159;28;20043;-67
2022/03/04 05:28:28;;;;;;;35.92;24.52;;;;;;;2.73;56.49;101840.50;5079568;28;20114;-66
2022/03/04 05:30:54;;;;;;;34.83;23.73;;;;;;;2.70;56.66;101846.66;5086129;28;20432;-66
2022/03/04 05:33:19;;;;;;;34.20;24.48;;;;;;;2.70;56.61;101844.03;5108135;28;20111;-66
2022/03/04 05:35:45;;;;;;;31.30;23.85;;;;;;;2.68;56.70;101844.97;5083577;28;20087;-67
2022/03/04 05:38:10;;;;;;;35.03;24.33;;;;;;;2.48;56.56;101830.34;5091692;28;20064;-66
2022/03/04 05:40:36;;;;;;;41.08;25.23;;;;;;;2.52;56.89;101844.28;5096243;28;20422;-66
2022/03/04 05:43:01;;;;;;;34.13;22.60;;;;;;;2.45;56.99;101855.78;5096852;28;20035;-66
2022/03/04 05:45:28;;;;;;;40.38;25.33;;;;;;;2.35;57.36;101852.38;5093279;28;20036;-66
2022/03/04 05:47:54;;;;;;;37.53;24.80;;;;;;;2.40;57.57;101860.22;5096949;28;20063;-66
2022/03/04 05:50:19;;;;;;;36.95;24.75;;;;;;;2.22;57.72;101859.56;5094016;28;20056;-66
2022/03/04 05:52:47;;;;;;;36.38;24.20;;;;;;;2.15;57.98;101865.78;5090543;28;20055;-66
2022/03/04 05:55:12;;;;;;;34.22;23.67;;;;;;;2.24;57.80;101860.41;5065413;28;20119;-66
2022/03/04 05:57:38;;;;;;;33.47;23.88;;;;;;;2.12;58.46;101867.53;5081410;28;20186;-66
2022/03/04 06:00:06;;;;;;;32.83;23.98;;;;;;;2.07;58.52;101861.50;5067066;28;20104;-66
2022/03/04 06:02:32;;;;;;;35.20;24.52;;;;;;;1.97;58.06;101871.22;5106444;28;20027;-66
2022/03/04 06:04:57;;;;;;;35.85;25.05;;;;;;;2.00;58.78;101876.41;5073489;28;20130;-66
2022/03/04 06:07:23;;;;;;;36.90;24.27;;;;;;;1.86;58.55;101876.59;5080070;28;20042;-66
2022/03/04 06:09:49;;;;;;;37.58;25.10;;;;;;;1.95;59.34;101884.34;5086655;28;20028;-66
2022/03/04 06:12:17;;;;;;;35.00;24.42;;;;;;;1.81;59.21;101878.38;5095405;28;20395;-66
2022/03/04 06:14:42;;;;;;;41.53;25.58;;;;;;;1.55;58.75;101863.75;5075832;28;20032;-66
2022/03/04 06:17:08;;;;;;;43.10;25.42;;;;;;;1.71;59.82;101880.25;5078294;28;20089;-66
2022/03/04 06:19:34;;;;;;;45.17;26.88;;;;;;;1.73;59.56;101880.19;5059793;28;20440;-66
2022/03/04 06:21:59;;;;;;;40.80;26.05;;;;;;;1.85;59.29;101880.06;5099046;28;20379;-66
2022/03/04 06:24:25;;;;;;;38.88;26.58;;;;;;;1.89;58.93;101887.03;5093115;28;20024;-67
2022/03/04 06:26:50;;;;;;;38.28;24.75;;;;;;;1.93;58.96;101890.50;5061235;28;20034;-66
2022/03/04 06:29:17;;;;;;;36.75;25.45;;;;;;;1.93;59.71;101888.75;5089944;28;20032;-66
2022/03/04 06:31:43;;;;;;;44.92;26.40;;;;;;;1.95;59.39;101891.38;5080910;28;20433;-66
2022/03/04 06:34:08;;;;;;;41.08;26.77;;;;;;;1.81;59.28;101894.13;5109814;28;20027;-66
2022/03/04 06:36:33;;;;;;;36.50;25.25;;;;;;;1.93;59.48;101890.50;5067524;28;20028;-66
2022/03/04 06:39:00;;;;;;;41.28;25.45;;;;;;;1.76;59.83;101894.16;5089501;28;20031;-66
2022/03/04 06:41:26;;;;;;;37.22;26.13;;;;;;;1.77;60.60;101897.66;5093624;28;20409;-66
2022/03/04 06:43:52;;;;;;;37.17;25.58;;;;;;;1.79;59.97;101888.00;5088505;28;20028;-66
2022/03/04 06:46:17;;;;;;;35.17;24.60;;;;;;;1.74;60.26;101902.94;5065455;28;20118;-66
2022/03/04 06:48:42;;;;;;;36.40;25.60;;;;;;;1.76;60.15;101903.78;5061962;28;20479;-66
2022/03/04 06:51:10;;;;;;;40.08;25.60;;;;;;;1.67;60.19;101891.63;5096846;28;20128;-66
2022/03/04 06:53:38;;;;;;;38.92;25.33;;;;;;;1.79;60.42;101904.63;5110512;28;20043;-66
2022/03/04 06:56:06;;;;;;;39.05;26.10;;;;;;;1.88;60.09;101911.53;5099127;28;20035;-66
2022/03/04 06:58:32;;;;;;;42.00;25.85;;;;;;;1.89;59.99;101915.91;5084450;28;20391;-66
2022/03/04 07:00:57;;;;;;;34.33;25.58;;;;;;;1.85;60.10;101915.94;5083279;28;20042;-66
2022/03/04 07:03:23;;;;;;;41.03;24.92;;;;;;;1.86;60.31;101917.69;5107277;28;20036;-67
2022/03/04 07:05:49;;;;;;;39.33;25.48;;;;;;;1.89;60.38;101925.53;5092374;28;20039;-66
2022/03/04 07:08:15;;;;;;;41.58;26.98;;;;;;;2.03;60.11;101927.13;5082158;28;20436;-65
2022/03/04 07:10:44;;;;;;;36.40;25.67;;;;;;;2.07;60.48;101935.84;5099879;28;20039;-66
2022/03/04 07:13:11;;;;;;;40.78;25.77;;;;;;;2.12;60.18;101941.00;5106976;28;20023;-66
2022/03/04 07:15:37;;;;;;;38.92;25.30;;;;;;;2.28;59.81;101940.84;5058673;28;20115;-66
2022/03/04 07:18:03;;;;;;;39.53;26.13;;;;;;;2.29;59.13;101952.19;5094266;28;20372;-66
2022/03/04 07:20:28;;;;;;;37.67;24.85;;;;;;;2.46;59.45;101954.66;5089060;28;20032;-66
2022/03/04 07:22:54;;;;;;;40.58;24.95;;;;;;;2.53;58.83;101951.09;5074283;28;20035;-65
2022/03/04 07:25:19;;;;;;;36.47;25.65;;;;;;;2.60;58.40;101949.25;5094404;28;20024;-65
2022/03/04 07:27:45;;;;;;;38.88;25.58;;;;;;;2.59;57.75;101953.63;5089446;28;20035;-65
2022/03/04 07:30:15;;;;;;;36.40;24.42;;;;;;;2.80;58.00;101941.13;5097693;28;20477;-66
2022/03/04 07:32:43;;;;;;;39.88;25.83;;;;;;;2.90;57.71;101946.19;5105401;28;20028;-66
2022/03/04 07:35:10;;;;;;;39.00;26.27;;;;;;;2.89;57.34;101948.88;5078082;28;20475;-66
2022/03/04 07:37:37;;;;;;;40.70;25.08;;;;;;;2.89;57.11;101943.63;5088784;28;20031;-66
2022/03/04 07:40:04;;;;;;;37.67;25.13;;;;;;;2.95;57.15;101933.88;5100465;28;20073;-66
2022/03/04 07:42:31;;;;;;;38.42;24.65;;;;;;;2.98;56.91;101932.09;5105655;28;20520;-67
2022/03/04 07:44:56;;;;;;;40.90;25.85;;;;;;;3.11;56.66;101942.41;5100930;28;20042;-66
2022/03/04 07:47:22;;;;;;;39.08;25.38;;;;;;;3.23;56.72;101941.34;5078308;28;20486;-66
2022/03/04 07:49:48;;;;;;;40.53;26.17;;;;;;;3.27;56.60;101943.06;5099696;28;20043;-65
2022/03/04 07:52:13;;;;;;;38.55;26.98;;;;;;;3.38;55.81;101942.88;5108432;28;20530;-65
2022/03/04 07:54:39;;;;;;;37.83;25.27;;;;;;;3.42;55.91;101952.47;5103719;28;20034;-66
2022/03/04 07:57:05;;;;;;;39.60;26.13;;;;;;;3.47;55.90;101945.41;5079959;28;20032;-65
2022/03/04 07:59:31;;;;;;;38.17;26.23;;;;;;;3.66;55.41;101945.09;5093761;28;20386;-66
2022/03/04 08:01:56;;;;;;;38.42;24.15;;;;;;;3.87;55.46;101953.47;5077746;28;20032;-66
2022/03/04 08:04:22;;;;;;;40.90;25.73;;;;;;;4.04;54.80;101961.06;5076755;28;20036;-67
2022/03/04 08:06:48;;;;;;;38.42;25.55;;;;;;;4.20;53.98;101947.63;5073552;28;20024;-66
2022/03/04 08:09:14;;;;;;;39.58;25.25;;;;;;;4.28;53.83;101956.25;5099045;28;20392;-66
2022/03/04 08:11:40;;;;;;;38.10;25.05;;;;;;;4.33;52.80;101954.41;5071924;28;20032;-66
2022/03/04 08:14:05;;;;;;;35.25;25.17;;;;;;;4.23;52.74;101948.41;5045286;28;20119;-66
2022/03/04 08:16:33;;;;;;;41.05;26.45;;;;;;;4.42;52.76;101956.00;5072777;28;20383;-66
2022/03/04 08:18:59;;;;;;;35.45;24.20;;;;;;;4.46;52.72;101958.50;5095222;28;20391;-66
2022/03/04 08:21:25;;;;;;;37.72;24.88;;;;;;;4.61;52.00;101954.72;5093398;28;20379;-66
2022/03/04 08:23:52;;;;;;;38.22;25.42;;;;;;;4.74;52.29;101956.19;5095268;28;20380;-66
2022/03/04 08:26:20;;;;;;;37.58;26.15;;;;;;;4.78;52.07;101960.50;5091182;28;20035;-66
2022/03/04 08:28:46;;;;;;;33.13;23.73;;;;;;;4.87;50.76;101958.56;5079846;28;20038;-66
2022/03/04 08:31:12;;;;;;;33.55;24.15;;;;;;;4.91;50.75;101960.22;5103072;28;20023;-66
2022/03/04 08:33:43;;;;;;;35.47;24.35;;;;;;;4.93;50.93;101955.81;5077169;28;20482;-66
2022/03/04 08:36:09;;;;;;;;;;;;;;;5.14;50.91;101963.22;5105028;28;20027;-66
2022/03/04 08:38:35;;;;;;;34.72;25.63;;;;;;;5.16;50.97;101950.88;5105620;28;20374;-66
2022/03/04 08:41:00;;;;;;;31.55;22.40;;;;;;;5.43;50.04;101969.63;5093886;28;20073;-66
2022/03/04 08:43:25;;;;;;;31.77;24.40;;;;;;;5.54;49.74;101972.88;5095896;28;20411;-66
2022/03/04 08:45:51;;;;;;;36.40;24.80;;;;;;;5.52;48.78;101957.97;5105271;28;20035;-66
2022/03/04 08:48:17;;;;;;;34.38;24.17;;;;;;;5.74;48.88;101976.81;5082936;28;20040;-66
2022/03/04 08:50:42;;;;;;;35.25;25.38;;;;;;;5.85;49.41;101977.38;5081742;28;20038;-65
2022/03/04 08:53:08;;;;;;;33.97;25.45;;;;;;;5.95;48.29;101983.34;5089112;28;20064;-65
2022/03/04 08:55:33;;;;;;;35.28;24.23;;;;;;;5.91;48.48;101980.75;5092813;28;20024;-65
2022/03/04 08:58:00;;;;;;;33.92;23.98;;;;;;;5.94;48.39;101971.91;5098581;28;20092;-66
2022/03/04 09:00:27;;;;;;;36.83;24.02;;;;;;;6.05;48.20;101990.13;5089903;28;20489;-66
2022/03/04 09:02:53;;;;;;;34.00;24.25;;;;;;;6.12;47.72;101979.38;5110803;28;20114;-66
2022/03/04 09:05:18;;;;;;;34.80;23.40;;;;;;;6.21;46.57;101988.81;5101998;28;20450;-66
2022/03/04 09:07:44;;;;;;;31.02;23.13;;;;;;;6.29;47.54;101992.09;5099168;28;20113;-66
2022/03/04 09:10:13;;;;;;;33.30;24.38;;;;;;;6.32;46.77;101983.22;5068921;28;20039;-66
2022/03/04 09:12:39;;;;;;;31.33;24.13;;;;;;;6.32;46.05;101993.78;5096785;28;20020;-66
2022/03/04 09:15:07;;;;;;;37.30;23.70;;;;;;;6.24;46.45;101986.09;5089972;28;20062;-66
2022/03/04 09:17:32;;;;;;;34.20;23.38;;;;;;;6.34;47.04;101987.56;5081269;28;20106;-66
2022/03/04 09:20:00;;;;;;;32.05;22.48;;;;;;;6.43;46.24;101983.81;5099828;28;20115;-66
2022/03/04 09:22:26;;;;;;;34.40;23.95;;;;;;;6.67;46.36;101984.03;5073810;28;20035;-66
2022/03/04 09:24:52;;;;;;;35.38;24.63;;;;;;;6.85;46.44;101974.69;5078674;28;20074;-66
2022/03/04 09:27:17;;;;;;;35.58;24.00;;;;;;;7.05;45.48;101973.19;5091920;28;20038;-65
2022/03/04 09:29:43;;;;;;;35.67;22.85;;;;;;;7.19;45.18;101974.56;5108219;28;20122;-66
2022/03/04 09:32:10;;;;;;;30.25;22.60;;;;;;;7.38;44.84;101973.09;5089766;28;20439;-66
2022/03/04 09:34:36;;;;;;;34.58;22.73;;;;;;;7.62;44.46;101971.44;5097230;28;20035;-66
2022/03/04 09:37:02;;;;;;;31.13;23.70;;;;;;;7.67;43.57;101960.66;5082542;28;20112;-66
2022/03/04 09:39:30;;;;;;;36.08;22.70;;;;;;;7.99;43.09;101979.91;5077650;28;20121;-66
2022/03/04 09:41:55;;;;;;;30.60;23.80;;;;;;;8.17;43.74;101958.09;5103860;28;20024;-67
2022/03/04 09:44:21;;;;;;;32.08;23.83;;;;;;;8.47;42.70;101972.09;5097076;28;20473;-67
2022/03/04 09:46:47;;;;;;;33.42;23.20;;;;;;;8.77;41.99;101963.91;5113727;28;20119;-67
2022/03/04 09:49:17;;;;;;;31.30;23.08;;;;;;;9.15;42.20;101961.56;5109676;28;20031;-70
2022/03/04 09:51:43;;;;;;;31.88;23.70;;;;;;;9.07;41.23;101959.22;5114674;28;20067;-70
2022/03/04 09:54:08;;;;;;;33.05;23.23;;;;;;;9.11;40.63;101963.47;5099300;28;20051;-70
2022/03/04 09:56:34;;;;;;;31.13;22.27;;;;;;;9.04;40.50;101967.31;5105189;28;20405;-70
2022/03/04 09:58:59;;;;;;;31.98;22.58;;;;;;;9.15;41.21;101967.75;5081210;28;20398;-70
2022/03/04 10:01:24;;;;;;;31.02;22.27;;;;;;;9.22;40.02;101963.06;5075543;28;20034;-70
2022/03/04 10:03:52;;;;;;;30.73;22.15;;;;;;;9.55;40.07;101966.16;5076049;28;20027;-70
2022/03/04 10:06:19;;;;;;;35.83;22.67;;;;;;;9.67;40.33;101962.13;5106765;28;20027;-71
2022/03/04 10:08:52;;;;;;;34.55;24.05;;;;;;;9.67;40.48;101967.44;5096203;28;20024;-71
2022/03/04 10:11:31;;;;;;;33.95;23.15;;;;;;;9.91;40.15;101963.78;5114662;28;20491;-70
2022/03/04 10:14:01;;;;;;;30.77;23.15;;;;;;;9.97;39.05;101968.81;5093863;28;20020;-70
2022/03/04 10:16:38;;;;;;;29.45;23.70;;;;;;;10.32;38.98;101966.44;5110795;28;20038;-70
2022/03/04 10:19:13;;;;;;;36.15;23.40;;;;;;;10.50;38.43;101969.22;5096540;28;20024;-71
2022/03/04 10:21:48;;;;;;;37.58;24.15;;;;;;;10.65;38.22;101971.22;5093520;28;20028;-71
2022/03/04 10:24:20;;;;;;;36.63;23.27;;;;;;;10.82;38.04;101970.41;5095820;28;20042;-71
2022/03/04 10:26:46;;;;;;;28.05;20.95;;;;;;;10.98;36.21;101973.25;5113887;28;20111;-70
2022/03/04 10:29:23;;;;;;;27.92;21.98;;;;;;;10.86;37.14;101978.22;5098653;28;20116;-70
2022/03/04 10:32:26;;;;;;;31.38;22.48;;;;;;;11.07;37.23;101978.16;5090515;28;20020;-70
2022/03/04 10:34:59;;;;;;;29.48;22.33;;;;;;;11.33;37.20;101985.75;5071540;28;20031;-71
2022/03/04 10:37:48;;;;;;;28.50;21.80;;;;;;;11.54;36.28;101975.00;5113338;28;20023;-70
2022/03/04 10:40:15;;;;;;;30.10;21.38;;;;;;;11.79;34.79;101982.63;5075230;28;20119;-71
2022/03/04 10:42:41;;;;;;;26.85;20.48;;;;;;;11.97;34.91;101973.75;5075160;28;20032;-70
2022/03/04 10:45:10;;;;;;;28.30;21.27;;;;;;;12.31;34.36;101973.81;5092980;28;20027;-70
2022/03/04 10:47:49;;;;;;;27.95;20.40;;;;;;;12.41;35.04;101969.72;5100381;28;20031;-70
2022/03/04 10:50:15;;;;;;;27.80;20.95;;;;;;;12.51;34.38;101954.94;5096191;28;20028;-70
2022/03/04 10:53:00;;;;;;;27.40;19.98;;;;;;;13.12;33.47;101958.75;5092097;28;20405;-70
2022/03/04 10:55:50;;;;;;;27.58;20.92;;;;;;;13.18;33.04;101953.94;5091810;28;20039;-70
2022/03/04 10:58:21;;;;;;;25.70;20.50;;;;;;;13.14;32.20;101957.69;5073322;28;20040;-70
2022/03/04 11:00:48;;;;;;;25.45;20.15;;;;;;;13.57;31.76;101957.13;5071273;28;20028;-70
2022/03/04 11:03:22;;;;;;;27.45;20.80;;;;;;;13.80;31.61;101953.97;5077572;28;20024;-70
2022/03/04 11:05:51;;;;;;;29.50;19.33;;;;;;;14.02;30.81;101952.69;5093053;28;20085;-70
2022/03/04 11:08:18;;;;;;;27.35;19.67;;;;;;;14.27;30.53;101960.09;5081084;28;20032;-70
2022/03/04 11:10:44;;;;;;;27.95;19.75;;;;;;;14.34;29.66;101953.41;5073062;28;20043;-71
2022/03/04 11:13:11;;;;;;;22.90;18.30;;;;;;;14.46;29.90;101958.00;5082543;28;20475;-71
2022/03/04 11:15:38;;;;;;;28.00;20.73;;;;;;;15.03;29.65;101954.47;5091273;28;20053;-71